• Join FlightAware (Why Join?)
  • Login
  • US Flag 
06:41AM EST


 

Airport Tracker/Info


-or-


 

Live Flight TrackerFlight Track Log ✈ SWA1004 ✈ 2013年 05月 25日 ✈ KHOU - KELP

Flight Track Log - Related Links

Times and Time Zones

All times are in EDT time to prevent confusion due to time zone crossing. See the SWA1004 flight status page for this flight to view local times or setup timezone preferences in your user account.

Time Position Orientation Groundspeed Altitude Reporting Facility
EDT Latitude Longitude Course Direction KTS MPH feet Rate Location/Type
03:44PM 29.6583 -95.2647 349° North 176 203 700  Level Houston Center
03:45PM 29.6861 -95.2708 349° North 203 234 1,800 1,560 Climbing Houston Center
03:45PM 29.6958 -95.2897 301° West 189 217 2,400 2,400 Climbing Houston Center
03:45PM 29.7128 -95.3303 296° West 234 269 4,000 2,280 Climbing Houston Center
03:46PM 29.7258 -95.3594 297° West 236 272 4,800 2,640 Climbing Houston Center
03:46PM 29.7472 -95.4103 296° West 286 329 6,700 3,600 Climbing Houston Center
03:47PM 29.7672 -95.4572 296° West 280 322 8,500 3,180 Climbing Houston Center
03:48PM 29.7875 -95.5042 296° West 296 341 10,300 2,580 Climbing Houston Center
03:48PM 29.7961 -95.5461 283° West 295 339 11,200 1,980 Climbing Houston Center
03:49PM 29.8092 -95.6075 284° West 343 395 12,300 1,920 Climbing Houston Center
03:49PM 29.8178 -95.6514 283° West 332 382 13,200 2,280 Climbing Houston Center
03:50PM 29.8425 -95.7642 284° West 358 412 15,800 2,460 Climbing Houston Center
03:51PM 29.8672 -95.8783 284° West 368 423 18,300 1,980 Climbing Houston Center
03:52PM 29.8914 -95.9961 283° West 378 435 19,900 1,680 Climbing Houston Center
03:53PM 29.9519 -96.1156 300° West 402 463 21,800 1,560 Climbing Houston Center
03:54PM 30.0158 -96.2206 305° West 403 464 23,100 1,260 Climbing Houston Center
03:55PM 30.0658 -96.3422 295° West 429 494 24,500 1,440 Climbing Houston Center
03:56PM 30.0917 -96.4703 283° West 416 479 26,100 1,440 Climbing Houston Center
03:57PM 30.1233 -96.6225 284° West 423 487 27,500 1,080 Climbing Houston Center
03:58PM 30.1503 -96.7608 283° West 433 498 28,400 1,140 Climbing Houston Center
03:59PM 30.1789 -96.9000 283° West 440 506 29,900 1,740 Climbing Houston Center
04:00PM 30.2047 -97.0339 283° West 425 489 32,000 1,500 Climbing Houston Center
04:01PM 30.2311 -97.1622 283° West 410 472 33,000 840 Climbing Houston Center
04:02PM 30.2572 -97.2936 283° West 416 479 33,800 480 Climbing Houston Center
04:03PM 30.2833 -97.4256 283° West 417 480 34,000 60 Climbing Houston Center
04:04PM 30.3092 -97.5600 283° West 421 484 34,000  Level Houston Center
04:05PM 30.3342 -97.6928 282° West 417 480 34,000  Level Houston Center
04:06PM 30.3614 -97.8264 283° West 419 482 34,000 480 Level Houston Center
04:08PM 30.3858 -97.9578 282° West 414 476 35,100 900 Climbing Houston Center
04:09PM 30.4103 -98.0858 283° West 405 466 35,900 420 Climbing Houston Center
04:10PM 30.4386 -98.2375 282° West 408 470 36,000  Climbing Houston Center
04:11PM 30.4633 -98.3694 282° West 413 475 36,000  Level Houston Center
04:12PM 30.4875 -98.4992 282° West 410 472 36,000  Level Houston Center
04:13PM 30.5114 -98.6289 282° West 407 468 36,000  Level Houston Center
04:14PM 30.5358 -98.7589 282° West 408 470 36,000  Level Houston Center
04:15PM 30.5603 -98.8886 282° West 407 468 36,000  Level Houston Center
04:16PM 30.5850 -99.0189 282° West 409 471 36,000  Level Houston Center
04:17PM 30.6100 -99.1542 282° West 408 470 36,000  Level Houston Center
04:18PM 30.6328 -99.2825 282° West 408 470 36,000  Level Houston Center
04:19PM 30.6558 -99.4106 282° West 407 468 36,000  Level Houston Center
04:20PM 30.6789 -99.5389 282° West 408 470 36,000  Level Houston Center
04:21PM 30.7025 -99.6667 282° West 408 470 36,000  Level Houston Center
04:22PM 30.7275 -99.8181 281° West 397 457 36,000  Level Houston Center
04:23PM 30.7497 -99.9453 282° West 403 464 36,000  Level Houston Center
04:24PM 30.7728 -100.0739 282° West 405 466 36,000  Level Houston Center
04:25PM 30.7953 -100.2019 282° West 406 467 36,000  Level Houston Center
04:26PM 30.8169 -100.3294 281° West 403 464 36,000  Level Houston Center
04:27PM 30.8400 -100.4564 282° West 401 461 36,000  Level Houston Center
04:28PM 30.8614 -100.5844 281° West 395 455 36,000  Level Houston Center
04:29PM 30.8875 -100.7431 281° West 416 479 36,000  Level Houston Center
04:30PM 30.9078 -100.8728 280° West 413 475 36,000  Level Houston Center
04:31PM 30.9306 -101.0031 282° West 415 478 36,000  Level Houston Center
04:32PM 30.9519 -101.1325 281° West 410 472 36,000  Level Houston Center
04:33PM 30.9736 -101.2628 281° West 411 473 36,000  Level Houston Center
04:34PM 30.9936 -101.3892 280° West 406 467 36,000  Level Houston Center
04:35PM 31.0192 -101.5467 281° West 407 468 36,000  Level Houston Center
04:36PM 31.0394 -101.6792 280° West 412 474 36,000  Level Houston Center
04:37PM 31.0611 -101.8108 281° West 413 475 36,000  Level Houston Center
04:38PM 31.0819 -101.9436 280° West 414 476 36,000  Level Houston Center
04:39PM 31.1036 -102.0783 281° West 425 489 36,000  Level Houston Center
04:40PM 31.1181 -102.1731 280° West 420 483 36,000  Level Albuquerque Center
04:41PM 31.1381 -102.3061 280° West 417 480 36,000  Level Albuquerque Center
04:42PM 31.1594 -102.4403 281° West 418 481 36,000  Level Albuquerque Center
04:43PM 31.1786 -102.5686 280° West 416 479 36,000  Level Albuquerque Center
04:44PM 31.1986 -102.7025 280° West 416 479 36,000  Level Albuquerque Center
04:45PM 31.2233 -102.8633 280° West 418 481 36,000  Level Albuquerque Center
04:46PM 31.2433 -102.9981 280° West 421 484 36,000  Level Albuquerque Center
04:47PM 31.2631 -103.1331 280° West 421 484 36,000  Level Albuquerque Center
04:48PM 31.2822 -103.2686 279° West 422 486 36,000  Level Albuquerque Center
04:49PM 31.3028 -103.4031 280° West 420 483 36,000 -180 Level Albuquerque Center
04:50PM 31.3217 -103.5378 279° West 420 483 35,700 -660 Descending Albuquerque Center
04:51PM 31.3367 -103.6733 277° West 421 484 34,700 -840 Descending Albuquerque Center
04:52PM 31.3553 -103.8100 279° West 416 479 34,000 -360 Descending Albuquerque Center
04:53PM 31.3725 -103.9428 279° West 414 476 34,000  Level Albuquerque Center
04:54PM 31.3883 -104.0731 278° West 409 471 34,000  Level Albuquerque Center
04:55PM 31.4033 -104.2022 278° West 404 465 34,000  Level Albuquerque Center
04:56PM 31.4231 -104.3583 278° West 405 466 34,000  Level Albuquerque Center
04:57PM 31.4394 -104.4900 278° West 409 471 34,000  Level Albuquerque Center
04:58PM 31.4561 -104.6228 278° West 413 475 34,000 -720 Level Albuquerque Center
04:59PM 31.4708 -104.7575 277° West 417 480 32,600 -2,280 Descending Albuquerque Center
05:00PM 31.4867 -104.8950 278° West 421 484 29,400 -2,880 Descending Albuquerque Center
05:01PM 31.5025 -105.0303 278° West 424 488 26,800 -2,700 Descending Albuquerque Center
05:02PM 31.5200 -105.1842 278° West 414 476 23,900 -2,580 Descending Albuquerque Center
05:04PM 31.5339 -105.3017 278° West 389 448 21,600 -2,340 Descending Albuquerque Center
05:04PM 31.5422 -105.4047 275° West 370 426 19,700 -2,280 Descending Albuquerque Center
05:05PM 31.5481 -105.4581 277° West 364 419 18,700 -1,980 Descending Albuquerque Center
05:06PM 31.5589 -105.5375 279° West 358 412 17,200 -2,100 Descending Albuquerque Center
05:06PM 31.5611 -105.5719 274° West 351 404 16,600 -2,220 Descending Albuquerque Center
05:07PM 31.5717 -105.6481 279° West 346 398 15,000 -2,160 Descending Albuquerque Center
05:08PM 31.5831 -105.7567 277° West 339 390 12,800 -2,340 Descending Albuquerque Center
05:08PM 31.5922 -105.8061 282° West 334 384 11,900 -2,220 Descending Albuquerque Center
05:09PM 31.6161 -105.8561 299° West 334 384 10,600 -1,680 Descending Albuquerque Center
05:09PM 31.6375 -105.8997 300° West 333 383 10,200 -720 Descending Albuquerque Center
05:10PM 31.6597 -105.9442 300° West 308 354 9,900 -900 Descending Albuquerque Center
05:10PM 31.6778 -105.9792 301° West 271 312 9,300 -1,500 Descending Albuquerque Center
05:11PM 31.7044 -106.0339 300° West 269 310 8,400 -960 Descending Albuquerque Center
05:12PM 31.7378 -106.1044 299° West 250 288 7,700 -1,020 Descending Albuquerque Center
05:13PM 31.7608 -106.1781 290° West 241 277 6,400 -1,020 Descending Albuquerque Center
05:14PM 31.7872 -106.2617 290° West 231 266 5,500 -720 Descending Albuquerque Center
05:15PM 31.7981 -106.3039 287° West 168 193 5,000 -780 Descending Albuquerque Center
05:16PM 31.8011 -106.3583 274° West 149 171 4,100 -900 Descending Albuquerque Center
05:18PM 31.8000 -106.3667 270° West  Level FlightAware Approximate
05:25PM 31.8072 -106.3764 270° West  Level Estimated
05:26PM 31.8072 -106.3764 270° West  Level Estimated
05:27PM 31.8072 -106.3764 270° West  Level Estimated
05:28PM 31.8072 -106.3764 270° West  Level Estimated